Aviation Digital Data Service (ADDS)

Output produced by METARs form (0621 UTC 28 September 2022)
found at http://www.aviationweather.gov/metar/data/
 
VTSS 280600Z 23007KT 9999 -RA FEW013 BKN100 28/25 Q1006 NOSIG
VTSS 280530Z 24006KT 110V260 9999 FEW010 BKN100 27/25 Q1006 NOSIG
VTSS 280500Z 23005KT 090V260 9999 SCT020 BKN100 27/24 Q1007 NOSIG
VTSS 280430Z 24003KT 090V260 9999 -RA FEW020 BKN100 26/24 Q1007 NOSIG
VTSS 280400Z 23004KT 090V260 9999 -RA FEW020 BKN100 25/24 Q1007 NOSIG
VTSS 280330Z 24005KT 110V260 9999 -RA FEW020 SCT028 BKN100 25/24 Q1008 NOSIG
VTSS 280300Z 14004KT 090V260 9999 -RA FEW018CB SCT028 BKN100 25/24 Q1009 NOSIG
VTSS 280230Z 23005KT 090V260 9999 -RA FEW018CB SCT028 BKN100 25/24 Q1009 NOSIG
VTSS 280200Z 23005KT 9999 -RA FEW018CB SCT028 BKN100 25/23 Q1009 NOSIG
VTSS 280130Z 24005KT 100V260 9999 -RA FEW020 SCT028 BKN100 24/23 Q1008 NOSIG
VTSS 280100Z 24006KT 130V260 9999 -RA FEW020 SCT028 BKN100 24/23 Q1008 NOSIG
VTSS 280030Z 20005KT 090V260 9999 -RA FEW020 SCT028 BKN090 24/23 Q1008 NOSIG
VTSS 280000Z 23002KT 9000 -RA FEW020 SCT028 OVC090 24/23 Q1007 NOSIG
VTSS 272330Z 00000KT 7000 -RA FEW018CB SCT028 OVC090 24/23 Q1007 NOSIG
VTSS 272300Z 00000KT 7000 -RA FEW018CB SCT020 OVC090 24/24 Q1007 NOSIG
VTSS 272230Z 00000KT 7000 -RA FEW018CB SCT020 BKN028 24/24 Q1007 NOSIG
VTSS 272200Z 29002KT 8000 -RA FEW018CB SCT020 BKN028 25/24 Q1007 NOSIG
VTSS 272130Z 00000KT 9999 -RA FEW018CB SCT020 BKN100 24/24 Q1006 NOSIG
VTSS 272100Z 00000KT 9999 FEW020 SCT028 BKN100 24/24 Q1006 RERA NOSIG
VTSS 272030Z 22002KT 9000 -RA FEW020 SCT028 BKN100 24/24 Q1006 NOSIG
VTSS 272000Z 00000KT 9999 FEW020 SCT028 BKN100 24/24 Q1006 NOSIG
VTSS 271930Z VRB02KT 9999 -RA FEW020 SCT028 BKN100 25/24 Q1006 NOSIG
VTSS 271900Z 30003KT 9999 -RA FEW018CB SCT020 OVC100 25/24 Q1007 NOSIG
VTSS 271830Z 00000KT 9999 FEW020 BKN100 25/24 Q1007 NOSIG
VTSS 271800Z 00000KT 9999 FEW020 BKN100 25/24 Q1008 NOSIG
VTSS 271730Z 00000KT 9999 FEW020 SCT028 BKN100 25/24 Q1008 NOSIG
VTSS 271700Z 00000KT 9999 FEW020 SCT028 BKN100 25/24 Q1009 NOSIG
VTSS 271630Z 00000KT 9999 -RA FEW020 SCT028 BKN100 25/24 Q1009 NOSIG
VTSS 271600Z 00000KT 9999 -RA FEW020 SCT028 BKN100 25/24 Q1009 NOSIG
VTSS 271530Z 13003KT 090V260 9999 -RA FEW018CB SCT020 BKN100 26/25 Q1009 NOSIG
VTSS 271500Z 00000KT 9999 -RA FEW018CB SCT020 BKN100 26/24 Q1009 NOSIG
VTSS 271430Z 00000KT 9999 FEW020 BKN100 26/24 Q1009 NOSIG
VTSS 271400Z 00000KT 9999 FEW020 SCT100 26/24 Q1008 NOSIG
VTSS 271330Z 00000KT 9999 FEW020 SCT100 26/24 Q1008 NOSIG
VTSS 271300Z VRB02KT 9999 FEW020 BKN100 27/24 Q1008 NOSIG
VTSS 271230Z 00000KT 9999 FEW020 BKN100 27/24 Q1007 NOSIG
VTSS 271200Z 00000KT 9999 FEW018CB SCT020 BKN100 28/24 Q1007 NOSIG
VTSS 271130Z 00000KT 9999 VCSH FEW018CB SCT020 BKN100 28/25 Q1006 NOSIG
VTSS 271100Z 12008KT 9999 SCT020 BKN100 29/25 Q1006 NOSIG
VTSS 271030Z 25005KT 9999 FEW020 BKN100 31/23 Q1005 NOSIG
VTSS 271000Z VRB03KT 9999 SCT020 BKN100 31/22 Q1005 NOSIG
VTSS 270930Z 24003KT 150V310 9999 SCT020 BKN100 32/24 Q1005 NOSIG
VTSS 270900Z VRB03KT 9999 FEW020 BKN100 30/25 Q1005 NOSIG
VTSS 270830Z 12005KT 100V180 9999 FEW020 BKN100 29/25 Q1005 NOSIG
VTSS 270800Z 12006KT 9999 FEW020 BKN100 29/24 Q1005 NOSIG
VTSS 270730Z 12005KT 100V240 9999 VCSH FEW018CB BKN100 29/24 Q1006 NOSIG
VTSS 270700Z 12006KT 9999 VCSH FEW018CB SCT020 BKN100 29/24 Q1006 NOSIG
VTSS 270630Z 00000KT 9999 VCSH FEW018CB SCT020 BKN100 29/24 Q1006 NOSIG
VTSS 270600Z VRB02KT 9999 VCSH FEW018CB SCT020 BKN100 31/23 Q1007 RERA NOSIG
VTSS 270530Z VRB06G16KT 9999 -RA FEW018CB SCT020 30/23 Q1008 NOSIG
TAF VTSS 280500Z 2806/2906 24008KT 9999 FEW020 BKN100 
     TEMPO 2806/2813 24015G25KT 4000 RA 
     BECMG 2813/2815 00000KT 
     TEMPO 2815/2903 4000 RA